createdAt,value
2022-07-30T00:02:02.522Z,77.57
2022-07-30T00:04:30.450Z,78.36
2022-07-30T00:06:58.529Z,77.13
2022-07-30T00:09:26.570Z,78.65
2022-07-30T00:11:55.049Z,78.58
2022-07-30T00:14:22.795Z,78.83
2022-07-30T00:16:50.584Z,79.81
2022-07-30T00:19:19.986Z,79.59
2022-07-30T00:21:49.132Z,79.95
2022-07-30T00:24:16.895Z,80.66
2022-07-30T00:26:44.637Z,79.63
2022-07-30T00:29:12.398Z,79.99
2022-07-30T00:31:40.229Z,81.53
2022-07-30T00:34:08.674Z,80.27
2022-07-30T00:36:37.775Z,81.85
2022-07-30T00:39:06.960Z,82.00
2022-07-30T00:41:34.967Z,82.06
2022-07-30T00:44:02.683Z,80.96
2022-07-30T00:46:30.413Z,81.49
2022-07-30T00:48:58.211Z,80.68
2022-07-30T00:51:25.958Z,81.56
2022-07-30T00:53:55.040Z,80.94
2022-07-30T00:56:22.813Z,82.48
2022-07-30T00:58:50.563Z,82.77
2022-07-30T01:01:18.346Z,85.83
2022-07-30T01:03:46.153Z,84.50
2022-07-30T01:06:14.609Z,83.92
2022-07-30T01:08:43.356Z,85.67
2022-07-30T01:11:12.893Z,84.18
2022-07-30T01:13:40.709Z,85.50
2022-07-30T01:16:08.525Z,85.95
2022-07-30T01:18:51.211Z,87.27
2022-07-30T01:21:25.211Z,87.12
2022-07-30T01:23:57.799Z,90.02
2022-07-30T01:26:28.988Z,89.44
2022-07-30T01:28:57.647Z,88.78
2022-07-30T01:31:28.033Z,89.48
2022-07-30T01:33:58.047Z,87.27
2022-07-30T01:36:28.227Z,89.48
2022-07-30T01:38:56.595Z,89.20
2022-07-30T01:41:25.159Z,87.51
2022-07-30T01:43:55.783Z,86.49
2022-07-30T01:46:25.685Z,88.67
2022-07-30T01:48:55.663Z,90.05
2022-07-30T01:51:24.019Z,88.14
2022-07-30T01:53:54.367Z,87.62
2022-07-30T01:56:26.074Z,91.80
2022-07-30T01:58:56.768Z,90.46
2022-07-30T02:01:25.145Z,88.90
2022-07-30T02:03:54.007Z,90.09
2022-07-30T02:06:24.574Z,90.25
2022-07-30T02:08:55.984Z,90.46
2022-07-30T02:11:37.646Z,92.04
2022-07-30T02:14:12.479Z,91.56
2022-07-30T02:16:42.959Z,92.75
2022-07-30T02:19:14.414Z,92.97
2022-07-30T02:21:50.542Z,91.87
2022-07-30T02:24:23.505Z,93.31
2022-07-30T02:26:56.714Z,90.48
2022-07-30T02:29:26.269Z,91.02
2022-07-30T02:31:57.834Z,90.94
2022-07-30T02:34:26.553Z,90.10
2022-07-30T02:36:55.991Z,89.68
2022-07-30T02:39:24.022Z,91.24
2022-07-30T02:41:53.699Z,92.66
2022-07-30T02:44:23.044Z,92.67
2022-07-30T02:46:53.461Z,93.03
2022-07-30T02:49:22.398Z,92.89
2022-07-30T02:51:51.863Z,93.02
2022-07-30T02:54:21.484Z,92.90
2022-07-30T02:56:51.484Z,92.96
2022-07-30T02:59:21.434Z,94.28
2022-07-30T03:01:50.352Z,94.13
2022-07-30T03:04:22.661Z,95.02
2022-07-30T03:06:51.173Z,93.79
2022-07-30T03:09:19.633Z,94.55
2022-07-30T03:11:50.441Z,91.68
2022-07-30T03:14:18.419Z,92.58
2022-07-30T03:16:54.140Z,93.05
2022-07-30T03:19:24.896Z,93.17
2022-07-30T03:21:54.866Z,95.28
2022-07-30T03:24:25.609Z,96.38
2022-07-30T03:26:56.724Z,95.71
2022-07-30T03:29:26.663Z,97.24
2022-07-30T03:31:54.947Z,99.23
2022-07-30T03:34:24.573Z,95.65
2022-07-30T03:36:53.042Z,96.83
2022-07-30T03:39:22.085Z,98.51
2022-07-30T03:41:50.626Z,98.49
2022-07-30T03:44:18.450Z,100.00
2022-07-30T03:46:50.711Z,100.00
2022-07-30T03:49:19.175Z,100.00
2022-07-30T03:51:49.057Z,100.00
2022-07-30T03:54:17.134Z,100.00
2022-07-30T03:56:45.168Z,100.00
2022-07-30T03:59:15.176Z,100.00
2022-07-30T04:01:43.056Z,100.00
2022-07-30T04:04:11.914Z,100.00
2022-07-30T04:06:40.619Z,100.00
2022-07-30T04:09:11.123Z,100.00
2022-07-30T04:11:41.353Z,100.00
2022-07-30T04:14:10.017Z,100.00
2022-07-30T04:16:44.599Z,99.78
2022-07-30T04:19:17.625Z,100.00
2022-07-30T04:21:47.652Z,100.00
2022-07-30T04:24:18.126Z,100.00
2022-07-30T04:26:46.847Z,100.00
2022-07-30T04:29:18.280Z,100.00
2022-07-30T04:31:48.446Z,100.00
2022-07-30T04:34:16.837Z,100.00
2022-07-30T04:36:45.025Z,100.00
2022-07-30T04:39:13.049Z,100.00
2022-07-30T04:41:48.523Z,100.00
2022-07-30T04:44:18.556Z,100.00
2022-07-30T04:46:46.810Z,100.00
2022-07-30T04:49:17.160Z,100.00
2022-07-30T04:51:46.050Z,100.00
2022-07-30T04:54:16.307Z,100.00
2022-07-30T04:56:52.495Z,100.00
2022-07-30T04:59:24.698Z,100.00
2022-07-30T05:01:54.614Z,100.00
2022-07-30T05:04:24.872Z,100.00
2022-07-30T05:06:54.660Z,100.00
2022-07-30T05:09:24.033Z,100.00
2022-07-30T05:11:54.444Z,100.00
2022-07-30T05:14:23.323Z,100.00
2022-07-30T05:16:51.121Z,100.00
2022-07-30T05:19:19.174Z,100.00
2022-07-30T05:21:47.044Z,99.86
2022-07-30T05:24:14.863Z,100.00
2022-07-30T05:26:43.148Z,100.00
2022-07-30T05:29:18.658Z,100.00
2022-07-30T05:31:47.687Z,100.00
2022-07-30T05:34:15.415Z,100.00
2022-07-30T05:36:44.593Z,99.90
2022-07-30T05:39:12.516Z,100.00
2022-07-30T05:41:40.322Z,100.00
2022-07-30T05:44:08.092Z,97.69
2022-07-30T05:46:37.246Z,100.00
2022-07-30T05:49:06.336Z,99.46
2022-07-30T05:51:34.285Z,99.35
2022-07-30T05:54:02.069Z,100.00
2022-07-30T05:56:29.797Z,99.37
2022-07-30T05:58:57.578Z,99.83
2022-07-30T06:01:25.440Z,97.52
2022-07-30T06:03:54.621Z,98.87
2022-07-30T06:06:23.301Z,99.85
2022-07-30T06:08:51.511Z,98.78
2022-07-30T06:11:19.457Z,96.68
2022-07-30T06:13:47.225Z,97.59
2022-07-30T06:16:15.061Z,98.93
2022-07-30T06:18:42.875Z,100.00
2022-07-30T06:21:12.195Z,99.31
2022-07-30T06:23:39.929Z,99.87
2022-07-30T06:26:07.680Z,97.32
2022-07-30T06:28:38.051Z,98.42
2022-07-30T06:31:06.650Z,96.30
2022-07-30T06:33:34.531Z,96.24
2022-07-30T06:36:02.294Z,94.80
2022-07-30T06:38:31.443Z,94.37
2022-07-30T06:41:03.028Z,96.17
2022-07-30T06:43:32.478Z,95.81
2022-07-30T06:46:00.712Z,96.07
2022-07-30T06:48:28.524Z,94.48
2022-07-30T06:50:56.244Z,92.59
2022-07-30T06:53:23.972Z,93.00
2022-07-30T06:55:53.121Z,93.65
2022-07-30T06:58:26.351Z,92.95
2022-07-30T07:00:54.090Z,92.23
2022-07-30T07:03:21.858Z,92.99
2022-07-30T07:05:49.611Z,93.33
2022-07-30T07:08:18.444Z,92.85
2022-07-30T07:10:46.239Z,91.44
2022-07-30T07:13:15.396Z,90.92
2022-07-30T07:15:43.201Z,91.68
2022-07-30T07:18:12.698Z,88.35
2022-07-30T07:20:40.428Z,87.67
2022-07-30T07:23:09.359Z,87.48
2022-07-30T07:25:39.942Z,88.17
2022-07-30T07:28:12.573Z,88.73
2022-07-30T07:30:43.249Z,86.66
2022-07-30T07:33:12.072Z,84.38
2022-07-30T07:35:49.130Z,82.35
2022-07-30T07:38:18.434Z,81.18
2022-07-30T07:40:46.269Z,80.26
2022-07-30T07:43:14.627Z,79.82
2022-07-30T07:45:44.322Z,82.64
2022-07-30T07:48:12.749Z,82.51
2022-07-30T07:50:40.624Z,81.59
2022-07-30T07:53:08.378Z,80.20
2022-07-30T07:55:36.376Z,79.96
2022-07-30T07:58:04.275Z,78.51
2022-07-30T08:00:32.101Z,79.10
2022-07-30T08:03:01.190Z,77.63
2022-07-30T08:05:58.057Z,78.31
2022-07-30T08:08:16.892Z,76.01
2022-07-30T08:10:44.624Z,76.65
2022-07-30T08:13:48.986Z,74.05
2022-07-30T08:16:00.427Z,74.01
2022-07-30T08:18:29.578Z,72.92
2022-07-30T08:20:57.314Z,72.51
2022-07-30T08:23:25.385Z,73.06
2022-07-30T08:25:53.121Z,71.55
2022-07-30T08:28:36.256Z,72.83
2022-07-30T08:31:05.093Z,72.56
2022-07-30T08:33:34.366Z,71.92
2022-07-30T08:36:09.283Z,72.16
2022-07-30T08:38:38.341Z,71.95
2022-07-30T08:41:06.554Z,70.04
2022-07-30T08:43:36.290Z,68.87
2022-07-30T08:46:06.920Z,68.63
2022-07-30T08:48:37.240Z,67.00
2022-07-30T08:51:05.271Z,66.59
2022-07-30T08:53:34.776Z,65.01
2022-07-30T08:56:02.793Z,63.80
2022-07-30T08:58:33.613Z,64.36
2022-07-30T09:01:01.731Z,65.73
2022-07-30T09:03:29.641Z,65.75
2022-07-30T09:05:58.834Z,64.62
2022-07-30T09:08:26.723Z,63.61
2022-07-30T09:10:54.745Z,63.85
2022-07-30T09:13:28.603Z,63.45
2022-07-30T09:15:57.104Z,60.69
2022-07-30T09:18:31.894Z,60.46
2022-07-30T09:21:02.616Z,59.44
2022-07-30T09:23:31.205Z,58.84
2022-07-30T09:26:00.820Z,58.55
2022-07-30T09:28:31.196Z,57.09
2022-07-30T09:30:59.094Z,57.42
2022-07-30T09:33:36.205Z,57.52
2022-07-30T09:36:07.467Z,56.38
2022-07-30T09:38:47.676Z,56.07
2022-07-30T09:41:37.811Z,57.35
2022-07-30T09:44:06.272Z,56.90
2022-07-30T09:46:49.800Z,56.14
2022-07-30T09:49:18.910Z,54.70
2022-07-30T09:51:56.250Z,54.83
2022-07-30T09:54:25.869Z,56.97
2022-07-30T09:57:26.642Z,55.32
2022-07-30T09:59:55.664Z,53.83
2022-07-30T10:02:32.694Z,55.07
2022-07-30T10:05:14.156Z,56.35
2022-07-30T10:07:52.459Z,57.25
2022-07-30T10:10:25.663Z,55.58
2022-07-30T10:12:58.090Z,55.80
2022-07-30T10:15:29.851Z,53.09
2022-07-30T10:17:58.177Z,53.70
2022-07-30T10:20:26.391Z,53.42
2022-07-30T10:22:55.920Z,54.01
2022-07-30T10:25:28.039Z,53.69
2022-07-30T10:27:58.084Z,53.08
2022-07-30T10:30:28.185Z,53.56
2022-07-30T10:32:59.771Z,53.57
2022-07-30T10:35:34.403Z,51.99
2022-07-30T10:38:13.656Z,51.26
2022-07-30T10:40:48.742Z,51.20
2022-07-30T10:43:46.477Z,51.34
2022-07-30T10:46:26.277Z,52.37
2022-07-30T10:48:59.594Z,51.81
2022-07-30T10:51:42.431Z,51.17
2022-07-30T10:54:39.478Z,50.03
2022-07-30T10:57:11.597Z,50.41
2022-07-30T11:00:13.579Z,49.97
2022-07-30T11:03:14.194Z,52.66
2022-07-30T11:05:45.971Z,51.40
2022-07-30T11:08:32.467Z,50.41
2022-07-30T11:11:19.878Z,50.80
2022-07-30T11:13:57.354Z,50.76
2022-07-30T11:16:46.063Z,51.04
2022-07-30T11:19:56.432Z,51.15
2022-07-30T11:22:25.216Z,50.56
2022-07-30T11:24:53.293Z,50.66
2022-07-30T11:27:41.383Z,50.63
2022-07-30T11:30:37.822Z,50.35
2022-07-30T11:33:33.093Z,49.74
2022-07-30T11:36:12.383Z,49.91
2022-07-30T11:38:58.843Z,50.68
2022-07-30T11:41:31.463Z,51.60
2022-07-30T11:44:28.581Z,51.99
2022-07-30T11:46:56.861Z,51.14
2022-07-30T11:49:24.793Z,50.31
2022-07-30T11:51:54.236Z,49.44
2022-07-30T11:54:21.974Z,50.16
2022-07-30T11:56:51.087Z,50.40
2022-07-30T11:59:18.928Z,51.61
2022-07-30T12:01:50.878Z,50.19
2022-07-30T12:04:18.795Z,49.41
2022-07-30T12:06:47.048Z,50.04
2022-07-30T12:09:24.271Z,48.70
2022-07-30T12:11:55.522Z,49.12
2022-07-30T12:14:23.329Z,47.43
2022-07-30T12:16:52.354Z,49.13
2022-07-30T12:19:20.102Z,50.14
2022-07-30T12:21:52.976Z,50.15
2022-07-30T12:24:27.412Z,50.28
2022-07-30T12:27:05.808Z,49.65
2022-07-30T12:29:34.791Z,49.59
2022-07-30T12:32:02.757Z,49.69
2022-07-30T12:34:30.495Z,48.06
2022-07-30T12:37:08.277Z,47.86
2022-07-30T12:39:37.466Z,47.57
2022-07-30T12:42:05.778Z,47.89
2022-07-30T12:44:40.748Z,47.34
2022-07-30T12:47:21.144Z,48.01
2022-07-30T12:49:50.305Z,47.26
2022-07-30T12:52:27.874Z,48.19
2022-07-30T12:55:16.210Z,47.24
2022-07-30T12:57:54.474Z,48.46
2022-07-30T13:00:23.363Z,47.83
2022-07-30T13:02:51.376Z,48.70
2022-07-30T13:05:19.612Z,46.43
2022-07-30T13:07:58.313Z,46.66
2022-07-30T13:10:31.206Z,46.85
2022-07-30T13:12:59.296Z,46.32
2022-07-30T13:15:27.364Z,46.11
2022-07-30T13:17:55.187Z,45.93
2022-07-30T13:20:23.395Z,45.37
2022-07-30T13:22:51.129Z,44.82
2022-07-30T13:25:19.107Z,44.38
2022-07-30T13:27:48.446Z,44.36
2022-07-30T13:30:16.223Z,45.08
2022-07-30T13:32:44.094Z,43.62
2022-07-30T13:35:11.808Z,43.64
2022-07-30T13:37:39.534Z,44.59
2022-07-30T13:40:08.469Z,43.77
2022-07-30T13:42:36.197Z,44.71
2022-07-30T13:45:05.975Z,42.56
2022-07-30T13:47:33.722Z,41.69
2022-07-30T13:50:01.507Z,42.68
2022-07-30T13:52:29.234Z,42.34
2022-07-30T13:54:57.006Z,43.29
2022-07-30T13:57:24.779Z,42.15
2022-07-30T13:59:52.585Z,42.99
2022-07-30T14:02:21.677Z,41.97
2022-07-30T14:04:49.398Z,41.46
2022-07-30T14:07:17.494Z,40.02
2022-07-30T14:09:47.732Z,40.74
2022-07-30T14:12:17.335Z,41.80
2022-07-30T14:14:45.094Z,41.58
2022-07-30T14:17:12.870Z,41.01
2022-07-30T14:19:42.789Z,41.07
2022-07-30T14:22:10.588Z,41.11
2022-07-30T14:24:39.002Z,40.60
2022-07-30T14:27:07.009Z,39.86
2022-07-30T14:29:35.399Z,40.38
2022-07-30T14:32:03.152Z,41.75
2022-07-30T14:34:31.431Z,42.03
2022-07-30T14:37:01.209Z,43.09
2022-07-30T14:39:29.121Z,43.25
2022-07-30T14:41:57.204Z,40.46
2022-07-30T14:44:25.257Z,41.45
2022-07-30T14:46:53.379Z,43.46
2022-07-30T14:49:22.615Z,42.64
2022-07-30T14:51:50.863Z,41.78
2022-07-30T14:54:20.006Z,40.20
2022-07-30T14:56:47.822Z,40.79
2022-07-30T14:59:15.795Z,40.57
2022-07-30T15:01:43.893Z,41.77
2022-07-30T15:04:12.416Z,41.08
2022-07-30T15:06:41.706Z,41.53
2022-07-30T15:09:10.466Z,40.84
2022-07-30T15:12:07.619Z,40.52
2022-07-30T15:14:28.385Z,41.19
2022-07-30T15:16:59.525Z,41.04
2022-07-30T15:19:31.681Z,40.52
2022-07-30T15:22:02.245Z,39.71
2022-07-30T15:24:31.119Z,40.41
2022-07-30T15:27:00.655Z,41.05
2022-07-30T15:29:30.032Z,41.14
2022-07-30T15:32:00.041Z,41.40
2022-07-30T15:34:29.823Z,41.69
2022-07-30T15:36:58.038Z,42.23
2022-07-30T15:39:25.821Z,40.64
2022-07-30T15:41:57.063Z,41.37
2022-07-30T15:44:26.271Z,40.58
2022-07-30T15:46:54.935Z,42.38
2022-07-30T15:49:22.805Z,42.65
2022-07-30T15:51:51.776Z,41.77
2022-07-30T15:54:23.238Z,42.49
2022-07-30T15:56:51.462Z,42.02
2022-07-30T15:59:19.562Z,41.93
2022-07-30T16:01:49.263Z,41.03
2022-07-30T16:04:18.320Z,41.28
2022-07-30T16:06:48.007Z,41.26
2022-07-30T16:09:15.882Z,41.92
2022-07-30T16:11:43.661Z,41.62
2022-07-30T16:14:11.638Z,43.38
2022-07-30T16:16:39.365Z,45.36
2022-07-30T16:19:08.946Z,46.03
2022-07-30T16:21:36.800Z,46.35
2022-07-30T16:24:04.969Z,47.00
2022-07-30T16:26:32.937Z,46.63
2022-07-30T16:29:00.653Z,46.78
2022-07-30T16:31:28.438Z,47.22
2022-07-30T16:33:56.198Z,47.89
2022-07-30T16:36:25.301Z,48.47
2022-07-30T16:38:53.042Z,48.76
2022-07-30T16:41:20.794Z,48.90
2022-07-30T16:43:48.541Z,49.54
2022-07-30T16:46:16.292Z,50.17
2022-07-30T16:48:47.201Z,50.80
2022-07-30T16:51:18.472Z,50.80
2022-07-30T16:53:48.571Z,50.96
2022-07-30T16:56:16.373Z,51.41
2022-07-30T16:58:44.107Z,51.34
2022-07-30T17:01:11.968Z,51.63
2022-07-30T17:03:39.759Z,51.45
2022-07-30T17:06:07.524Z,51.76
2022-07-30T17:08:35.342Z,52.25
2022-07-30T17:11:09.465Z,52.61
2022-07-30T17:13:40.322Z,53.03
2022-07-30T17:16:08.155Z,53.02
2022-07-30T17:18:35.907Z,52.67
2022-07-30T17:21:03.785Z,53.40
2022-07-30T17:23:31.523Z,53.52
2022-07-30T17:25:59.367Z,53.96
2022-07-30T17:28:28.509Z,53.87
2022-07-30T17:30:56.960Z,53.83
2022-07-30T17:33:25.251Z,54.14
2022-07-30T17:35:53.081Z,54.72
2022-07-30T17:38:20.840Z,54.52
2022-07-30T17:40:48.609Z,54.95
2022-07-30T17:43:16.710Z,55.51
2022-07-30T17:45:45.868Z,55.49
2022-07-30T17:48:13.629Z,56.51
2022-07-30T17:50:41.360Z,56.29
2022-07-30T17:53:09.092Z,56.76
2022-07-30T17:55:36.866Z,56.64
2022-07-30T17:58:05.240Z,56.89
2022-07-30T18:00:34.723Z,57.12
2022-07-30T18:03:04.448Z,57.95
2022-07-30T18:05:32.421Z,57.24
2022-07-30T18:08:00.183Z,58.25
2022-07-30T18:10:27.984Z,58.50
2022-07-30T18:12:56.172Z,58.52
2022-07-30T18:15:24.006Z,58.44
2022-07-30T18:17:51.766Z,58.75
2022-07-30T18:20:20.950Z,58.99
2022-07-30T18:22:51.457Z,59.39
2022-07-30T18:25:19.721Z,59.31
2022-07-30T18:27:48.029Z,59.11
2022-07-30T18:30:16.363Z,59.37
2022-07-30T18:32:44.311Z,59.71
2022-07-30T18:35:14.670Z,59.58
2022-07-30T18:37:44.871Z,60.63
2022-07-30T18:40:14.388Z,60.40
2022-07-30T18:42:42.783Z,60.92
2022-07-30T18:45:13.847Z,60.65
2022-07-30T18:47:42.113Z,61.66
2022-07-30T18:50:10.693Z,64.24
2022-07-30T18:52:38.679Z,63.40
2022-07-30T18:55:11.202Z,64.67
2022-07-30T18:57:39.305Z,65.83
2022-07-30T19:00:09.810Z,66.48
2022-07-30T19:02:57.573Z,66.34
2022-07-30T19:05:25.375Z,66.32
2022-07-30T19:07:58.059Z,67.51
2022-07-30T19:10:28.287Z,67.59
2022-07-30T19:12:56.764Z,68.26
2022-07-30T19:15:24.922Z,68.20
2022-07-30T19:17:52.909Z,69.57
2022-07-30T19:20:20.878Z,69.58
2022-07-30T19:22:48.780Z,71.31
2022-07-30T19:25:18.063Z,71.67
2022-07-30T19:27:47.144Z,72.51
2022-07-30T19:30:15.187Z,72.37
2022-07-30T19:32:43.730Z,72.36
2022-07-30T19:35:14.388Z,72.07
2022-07-30T19:37:42.821Z,72.21
2022-07-30T19:40:12.669Z,72.15
2022-07-30T19:42:41.486Z,72.62
2022-07-30T19:45:13.149Z,72.78
2022-07-30T19:47:42.230Z,71.99
2022-07-30T19:50:11.105Z,72.98
2022-07-30T19:52:39.646Z,72.34
2022-07-30T19:55:17.202Z,72.92
2022-07-30T19:57:56.454Z,72.70
2022-07-30T20:00:25.846Z,72.46
2022-07-30T20:02:54.017Z,73.59
2022-07-30T20:05:24.662Z,74.02
2022-07-30T20:07:52.750Z,73.31
2022-07-30T20:10:20.542Z,73.44
2022-07-30T20:12:50.335Z,73.76
2022-07-30T20:15:18.420Z,75.39
2022-07-30T20:17:47.562Z,74.43
2022-07-30T20:20:15.897Z,74.49
2022-07-30T20:22:43.871Z,75.25
2022-07-30T20:25:12.349Z,76.44
2022-07-30T20:27:41.362Z,76.25
2022-07-30T20:30:12.070Z,75.74
2022-07-30T20:32:46.418Z,77.64
2022-07-30T20:35:15.993Z,78.24
2022-07-30T20:37:54.691Z,79.56
2022-07-30T20:40:23.842Z,80.17
2022-07-30T20:42:53.142Z,82.74
2022-07-30T20:45:24.878Z,81.72
2022-07-30T20:47:56.079Z,81.85
2022-07-30T20:50:30.112Z,83.36
2022-07-30T20:52:58.790Z,83.08
2022-07-30T20:55:26.559Z,83.67
2022-07-30T20:58:02.798Z,82.43
2022-07-30T21:00:42.020Z,84.79
2022-07-30T21:03:18.022Z,84.43
2022-07-30T21:05:47.157Z,84.39
2022-07-30T21:08:15.682Z,85.11
2022-07-30T21:10:46.157Z,85.15
2022-07-30T21:13:13.982Z,87.01
2022-07-30T21:15:45.645Z,89.05
2022-07-30T21:18:29.600Z,88.14
2022-07-30T21:21:00.515Z,87.81
2022-07-30T21:23:28.561Z,89.60
2022-07-30T21:26:00.785Z,88.64
2022-07-30T21:28:35.211Z,90.68
2022-07-30T21:31:04.154Z,89.63
2022-07-30T21:33:35.590Z,91.64
2022-07-30T21:36:05.506Z,91.05
2022-07-30T21:38:38.996Z,89.50
2022-07-30T21:41:11.100Z,89.51
2022-07-30T21:43:42.302Z,90.91
2022-07-30T21:46:10.997Z,90.38
2022-07-30T21:48:39.691Z,88.70
2022-07-30T21:51:10.452Z,88.48
2022-07-30T21:53:46.539Z,89.45
2022-07-30T21:56:16.232Z,89.02
2022-07-30T21:58:44.505Z,89.06
2022-07-30T22:01:17.188Z,90.58
2022-07-30T22:04:01.153Z,89.90
2022-07-30T22:06:34.875Z,89.21
2022-07-30T22:09:06.317Z,89.40
2022-07-30T22:11:46.933Z,90.50
2022-07-30T22:14:15.770Z,89.43
2022-07-30T22:16:46.062Z,88.47
2022-07-30T22:19:14.751Z,90.60
2022-07-30T22:21:46.580Z,92.01
2022-07-30T22:24:28.908Z,90.82
2022-07-30T22:26:57.818Z,90.95
2022-07-30T22:29:28.008Z,90.29
2022-07-30T22:32:03.510Z,90.56
2022-07-30T22:34:31.712Z,91.51
2022-07-30T22:37:01.122Z,90.18
2022-07-30T22:39:31.785Z,92.81
2022-07-30T22:42:01.595Z,92.71
2022-07-30T22:44:29.662Z,92.76
2022-07-30T22:46:57.396Z,93.24
2022-07-30T22:49:45.687Z,93.47
2022-07-30T22:52:17.796Z,95.22
2022-07-30T22:54:50.992Z,92.47
2022-07-30T22:57:37.823Z,93.14
2022-07-30T23:00:11.896Z,95.16
2022-07-30T23:02:40.146Z,94.37
2022-07-30T23:05:08.806Z,92.84
2022-07-30T23:07:40.032Z,92.11
2022-07-30T23:10:17.270Z,91.33
2022-07-30T23:12:48.919Z,92.17
2022-07-30T23:15:16.843Z,91.69
2022-07-30T23:17:44.662Z,91.60
2022-07-30T23:20:15.085Z,90.91
2022-07-30T23:22:44.293Z,91.47
2022-07-30T23:25:13.257Z,92.04
2022-07-30T23:27:41.748Z,92.54
2022-07-30T23:30:12.279Z,91.46
2022-07-30T23:32:40.906Z,90.50
2022-07-30T23:35:10.576Z,91.96
2022-07-30T23:37:48.668Z,93.74
2022-07-30T23:40:19.362Z,92.70
2022-07-30T23:42:49.955Z,91.89
2022-07-30T23:45:17.915Z,92.94
2022-07-30T23:48:00.901Z,91.81
2022-07-30T23:50:30.063Z,92.74
2022-07-30T23:52:58.051Z,91.90
2022-07-30T23:55:27.937Z,93.10
2022-07-30T23:57:55.918Z,92.69
